Αναφορές METAR Αεροδρομίων

 

LGTS - THESSALONIKI - GREECE
Ενημερώθηκε: 26/09/2018 15:50
Μερικώς νεφελώδης
Μερικώς νεφελώδης
 Ανεμος από ΒΒΔ
Ανεμος: ΒΒΔ 13 km/h
Θερμοκρασία: 21°C
Σημ. Δρόσου: -2°C
Υγρασία: 21%
Βαρόμετρο: 1027 hPa
Clouds: Μερικώς νεφελώδης
Visibility: 10 km
Cloud details: Μερικώς νεφελώδης 914 m
2018/09/26 12:50 LGTS 261250Z 34007KT 9999 SCT030 21/M02 Q1027 NOSIG
LGLR - LARTISA - GREECE
Ενημερώθηκε: 20/09/2018 16:50
NOT Current
Αραιές Νεφώσεις
Αραιές Νεφώσεις
 Ανεμος από Α
Ανεμος: Α 17 km/h
Θερμοκρασία: 28°C
Σημ. Δρόσου: 10°C
Υγρασία: 32%
Βαρόμετρο: 1017 hPa
Clouds: Αραιές Νεφώσεις
Visibility: 10 km
Cloud details: Αραιές Νεφώσεις 914 m
2018/09/20 13:50 LGLR 201350Z 09009KT 9999 FEW030 28/10 Q1017 RMK FEW180 BLU
 
LGKZ - KOZANI - GREECE
Ενημερώθηκε: 26/09/2018 15:50
Σχεδόν νεφελώδης
Σχεδόν νεφελώδης
 Ανεμος από Β
Ανεμος: Β 7 km/h
Θερμοκρασία: 13°C
Σημ. Δρόσου: -3°C
Υγρασία: 33%
Βαρόμετρο: 1029 hPa
Clouds: Σχεδόν νεφελώδης
Visibility: 10 km
Cloud details: Μερικώς νεφελώδης 762 m
Σχεδόν νεφελώδης 2134 m
2018/09/26 12:50 LGKZ 261250Z 36004KT 9999 SCT025 BKN070 13/M03 Q1029
LGKV - KAVALA - GREECE
Ενημερώθηκε: 26/09/2018 15:50
Μερικώς νεφελώδης
Μερικώς νεφελώδης
 Ανεμος από ΒΑ
Ανεμος: ΒΑ 30 km/h
Θερμοκρασία: 19°C
Σημ. Δρόσου: -3°C
Υγρασία: 22%
Βαρόμετρο: 1028 hPa
Clouds: Μερικώς νεφελώδης
Visibility: 10 km
Cloud details: Αραιές Νεφώσεις 1067 m
Μερικώς νεφελώδης 1829 m
2018/09/26 12:50 LGKV 261250Z 04016KT 9999 FEW035 SCT060 19/M03 Q1028
 
LGIO - IOANNINA - GREECE
Ενημερώθηκε: 26/09/2018 14:50
NOT Current
Σχεδόν νεφελώδης
Σχεδόν νεφελώδης
 Ανεμος από varies
Ανεμος: varies 0 km/h
Θερμοκρασία: 12°C
Σημ. Δρόσου: 8°C
Υγρασία: 77%
Βαρόμετρο: 1026 hPa
Clouds: Σχεδόν νεφελώδης
Visibility: 10 km
Cloud details: Σχεδόν νεφελώδης 1067 m
Σχεδόν νεφελώδης 1829 m
2018/09/26 11:50 LGIO 261150Z /////KT 9999 BKN035 BKN060 12/08 Q1026
LGBL - BOLOS - GREECE
Ενημερώθηκε: 26/09/2018 15:50
Σχεδόν νεφελώδης
Σχεδόν νεφελώδης
 Ανεμος από Δ
Ανεμος: Δ 11 km/h
Θερμοκρασία: 16°C
Σημ. Δρόσου: 7°C
Υγρασία: 55%
Βαρόμετρο: 1027 hPa
Clouds: Σχεδόν νεφελώδης
Visibility: 10 km
Cloud details: Αραιές Νεφώσεις 549 m
Μερικώς νεφελώδης 914 m
Σχεδόν νεφελώδης 2438 m
2018/09/26 12:50 LGBL 261250Z 26006KT 9999 FEW018 SCT030 BKN080 16/07 Q1027
 
LGMT - MITILINI - GREECE
Ενημερώθηκε: 26/09/2018 15:50
Αραιές Νεφώσεις
Αραιές Νεφώσεις
 Ανεμος από Β
Ανεμος: Β 28 km/h
Θερμοκρασία: 19°C
Σημ. Δρόσου: 11°C
Υγρασία: 60%
Βαρόμετρο: 1021 hPa
Clouds: Αραιές Νεφώσεις
Visibility: 10 km
Cloud details: Αραιές Νεφώσεις 762 m
2018/09/26 12:50 LGMT 261250Z 01015KT 330V060 9999 FEW025 19/11 Q1021
LGAV - ATHENS - GREECE
Ενημερώθηκε: 26/09/2018 15:50
Μερικώς νεφελώδης
Μερικώς νεφελώδης
 Ανεμος από ΒΒΑ
Ανεμος: ΒΒΑ 56 km/h, Ριπή: 74 km/h
Θερμοκρασία: 20°C
Σημ. Δρόσου: 6°C
Υγρασία: 40%
Βαρόμετρο: 1023 hPa
Clouds: Μερικώς νεφελώδης
Visibility: 10 km
Cloud details: Μερικώς νεφελώδης 914 m
2018/09/26 12:50 LGAV 261250Z 03030G40KT 9999 SCT030 20/06 Q1023 NOSIG
 
LGRP - RODOS - GREECE
Ενημερώθηκε: 26/09/2018 15:50
Αραιές Νεφώσεις
Αραιές Νεφώσεις
 Ανεμος από ΔΝΔ
Ανεμος: ΔΝΔ 26 km/h
Θερμοκρασία: 26°C
Σημ. Δρόσου: 15°C
Υγρασία: 51%
Βαρόμετρο: 1011 hPa
Clouds: Αραιές Νεφώσεις
Visibility: 10 km
Cloud details: Αραιές Νεφώσεις 549 m
2018/09/26 12:50 LGRP 261250Z 25014KT 9999 FEW018 26/15 Q1011 NOSIG
LGIR - HRAKLIO/KRITI - GREECE
Ενημερώθηκε: 26/09/2018 15:50
Σχεδόν νεφελώδης
Σχεδόν νεφελώδης
 Ανεμος από ΒΔ
Ανεμος: ΒΔ 37 km/h
Θερμοκρασία: 21°C
Σημ. Δρόσου: 16°C
Υγρασία: 73%
Βαρόμετρο: 1018 hPa
Clouds: Σχεδόν νεφελώδης
Visibility: 10 km
Cloud details: Αραιές Νεφώσεις 549 m
Σχεδόν νεφελώδης 610 m
2018/09/26 12:50 LGIR 261250Z 32020KT 9999 FEW018 BKN020 21/16 Q1018 NOSIG
 
LGMK - MIKONOS - GREECE
Ενημερώθηκε: 26/09/2018 15:50
Μερικώς νεφελώδης
Μερικώς νεφελώδης
 Ανεμος από Β
Ανεμος: Β 57 km/h, Ριπή: 85 km/h
Θερμοκρασία: 19°C
Σημ. Δρόσου: 11°C
Υγρασία: 60%
Βαρόμετρο: 1018 hPa
Clouds: Μερικώς νεφελώδης
Visibility: 10 km
Cloud details: Μερικώς νεφελώδης 610 m
2018/09/26 12:50 LGMK 261250Z 36031G46KT 9999 SCT020 19/11 Q1018
LGKR - KERKIRA - GREECE
Ενημερώθηκε: 26/09/2018 15:50
Σχεδόν νεφελώδης
Σχεδόν νεφελώδης
 Ανεμος από ΒΒΑ
Ανεμος: ΒΒΑ 24 km/h
Θερμοκρασία: 22°C
Σημ. Δρόσου: 15°C
Υγρασία: 65%
Βαρόμετρο: 1023 hPa
Clouds: Σχεδόν νεφελώδης
Visibility: 10 km
Cloud details: Αραιές Νεφώσεις 610 m
Μερικώς νεφελώδης 762 m
Σχεδόν νεφελώδης 2134 m
2018/09/26 12:50 LGKR 261250Z 02013KT 9999 FEW020 SCT025 BKN070 22/15 Q1023 NOSIG